Time;durP1;ratioP1;P1;durP2;ratioP2;P2;SDS_P1;SDS_P2;PMS_P1;PMS_P2;Temp;Humidity;BMP_temperature;BMP_pressure;BME280_temperature;BME280_humidity;BME280_pressure;Samples;Min_cycle;Max_cycle;Signal;HPM_P1;HPM_P2
2021/05/05 00:02:08;;;;;;;0.70;0.50;;;;;;;-148.56;100.00;61375.16;5011404;28;20038;-31
2021/05/05 00:05:33;;;;;;;0.90;0.40;;;;;;;-148.56;100.00;61375.16;5013114;28;20025;-29
2021/05/05 00:08:57;;;;;;;0.77;0.50;;;;;;;-148.56;100.00;61375.16;5008270;28;20331;-30
2021/05/05 00:12:21;;;;;;;0.73;0.40;;;;;;;-148.56;100.00;61375.16;4999083;28;20045;-30
2021/05/05 00:15:45;;;;;;;4.20;0.50;;;;;;;-148.56;100.00;61375.16;5005905;28;20040;-32
2021/05/05 00:19:09;;;;;;;0.82;0.52;;;;;;;-148.56;100.00;61375.16;5011013;28;20040;-33
2021/05/05 00:22:32;;;;;;;3.83;0.30;;;;;;;-148.56;100.00;61375.16;5012146;28;20029;-31
2021/05/05 00:25:56;;;;;;;5.07;0.40;;;;;;;-148.56;100.00;61375.16;5010618;28;20116;-31
2021/05/05 00:29:20;;;;;;;1.75;0.57;;;;;;;-148.56;100.00;61375.16;5005438;28;20318;-30
2021/05/05 00:32:44;;;;;;;0.77;0.43;;;;;;;-148.56;100.00;61375.16;5015825;28;20057;-32
2021/05/05 00:36:08;;;;;;;1.00;0.50;;;;;;;-148.56;100.00;61375.16;5014628;28;20617;-30
2021/05/05 00:39:32;;;;;;;2.35;0.52;;;;;;;-148.56;100.00;61375.16;5013448;28;20017;-31
2021/05/05 00:42:56;;;;;;;0.73;0.40;;;;;;;-148.56;100.00;61375.16;5008361;28;20080;-29
2021/05/05 00:46:20;;;;;;;0.88;0.30;;;;;;;-148.56;100.00;61375.16;5010237;28;20038;-33
2021/05/05 00:49:44;;;;;;;0.63;0.50;;;;;;;-148.56;100.00;61375.16;5008669;28;20368;-29
2021/05/05 00:53:07;;;;;;;0.57;0.40;;;;;;;-148.56;100.00;61375.16;4990419;28;20064;-30
2021/05/05 00:56:31;;;;;;;0.38;0.20;;;;;;;-148.56;100.00;61375.16;5004583;28;20104;-31
2021/05/05 00:59:55;;;;;;;2.45;0.50;;;;;;;-148.56;100.00;61375.16;5005803;28;20031;-29
2021/05/05 01:03:19;;;;;;;0.57;0.30;;;;;;;-148.56;100.00;61375.16;4998197;28;20068;-34
2021/05/05 01:06:43;;;;;;;0.77;0.38;;;;;;;-148.56;100.00;61375.16;5004776;28;21251;-29
2021/05/05 01:10:08;;;;;;;2.17;0.30;;;;;;;-148.56;100.00;61375.16;5004484;28;20101;-33
2021/05/05 01:13:32;;;;;;;0.63;0.28;;;;;;;-148.56;100.00;61375.16;5012078;28;20038;-32
2021/05/05 01:16:55;;;;;;;1.65;0.75;;;;;;;-148.56;100.00;61375.16;4998651;28;20033;-32
2021/05/05 01:20:19;;;;;;;0.30;0.30;;;;;;;-148.56;100.00;61375.16;5014565;28;20398;-30
2021/05/05 01:23:43;;;;;;;1.65;0.35;;;;;;;-148.56;100.00;61375.16;5007989;28;20045;-29
2021/05/05 01:27:07;;;;;;;0.95;0.40;;;;;;;-148.56;100.00;61375.16;5011261;28;20033;-30
2021/05/05 01:30:32;;;;;;;0.82;0.40;;;;;;;-148.56;100.00;61375.16;4999734;28;20026;-30
2021/05/05 01:33:56;;;;;;;0.80;0.50;;;;;;;-148.56;100.00;61375.16;5010457;28;20087;-33
2021/05/05 01:37:21;;;;;;;0.30;0.30;;;;;;;-148.56;100.00;61375.16;4996792;28;20128;-33
2021/05/05 01:40:44;;;;;;;0.28;0.28;;;;;;;-148.56;100.00;61375.16;5013249;28;20024;-34
2021/05/05 01:44:08;;;;;;;0.60;0.25;;;;;;;-148.56;100.00;61375.16;5012406;28;20317;-33
2021/05/05 01:47:32;;;;;;;0.65;0.40;;;;;;;-148.56;100.00;61375.16;5010308;28;20026;-31
2021/05/05 01:50:58;;;;;;;0.80;0.40;;;;;;;-148.56;100.00;61375.16;5008777;28;20078;-29
2021/05/05 01:54:22;;;;;;;0.50;0.30;;;;;;;-148.56;100.00;61375.16;5011443;28;20451;-31
2021/05/05 01:57:46;;;;;;;0.65;0.30;;;;;;;-148.56;100.00;61375.16;5007200;28;20057;-32
2021/05/05 02:01:10;;;;;;;0.43;0.38;;;;;;;-148.56;100.00;61375.16;5004443;28;20026;-30
2021/05/05 02:04:34;;;;;;;1.10;0.38;;;;;;;-148.56;100.00;61375.16;5002918;28;20029;-32
2021/05/05 02:07:58;;;;;;;1.27;0.30;;;;;;;-148.56;100.00;61375.16;5014649;28;20025;-32
2021/05/05 02:11:22;;;;;;;0.17;0.15;;;;;;;-148.56;100.00;61375.16;4998333;28;20025;-34
2021/05/05 02:14:47;;;;;;;0.65;0.30;;;;;;;-148.56;100.00;61375.16;5000535;28;20491;-31
2021/05/05 02:18:11;;;;;;;0.55;0.30;;;;;;;-148.56;100.00;61375.16;5001176;28;20413;-30
2021/05/05 02:21:35;;;;;;;1.75;0.32;;;;;;;-148.56;100.00;61375.16;5010190;28;20033;-32
2021/05/05 02:24:58;;;;;;;0.90;0.28;;;;;;;-148.56;100.00;61375.16;4998432;28;20060;-33
2021/05/05 02:28:23;;;;;;;1.65;0.30;;;;;;;-148.56;100.00;61375.16;5008225;28;20707;-32
2021/05/05 02:31:47;;;;;;;0.20;0.20;;;;;;;-148.56;100.00;61375.16;4993844;28;20064;-33
2021/05/05 02:35:11;;;;;;;0.90;0.40;;;;;;;-148.56;100.00;61375.16;5007055;28;20197;-29
2021/05/05 02:38:35;;;;;;;0.40;0.35;;;;;;;-148.56;100.00;61375.16;5007367;28;20561;-30
2021/05/05 02:41:59;;;;;;;0.40;0.30;;;;;;;-148.56;100.00;61375.16;5002974;28;20228;-28
2021/05/05 02:45:23;;;;;;;0.70;0.30;;;;;;;-148.56;100.00;61375.16;5013154;28;20040;-28
2021/05/05 02:48:46;;;;;;;1.45;0.38;;;;;;;-148.56;100.00;61375.16;5005278;28;20033;-28
2021/05/05 02:52:10;;;;;;;2.03;0.55;;;;;;;-148.56;100.00;61375.16;5008912;28;20061;-31
2021/05/05 02:55:34;;;;;;;1.70;0.43;;;;;;;-148.56;100.00;61375.16;5007650;28;20577;-32
2021/05/05 02:58:58;;;;;;;0.55;0.30;;;;;;;-148.56;100.00;61375.16;5012613;28;20037;-30
2021/05/05 03:02:22;;;;;;;0.63;0.50;;;;;;;-148.56;100.00;61375.16;5007647;28;20102;-31
2021/05/05 03:05:46;;;;;;;4.32;0.50;;;;;;;-148.56;100.00;61375.16;5016031;28;20028;-33
2021/05/05 03:09:10;;;;;;;0.65;0.30;;;;;;;-148.56;100.00;61375.16;5011051;28;20242;-31
2021/05/05 03:12:34;;;;;;;0.75;0.40;;;;;;;-148.56;100.00;61375.16;5011150;28;20143;-34
2021/05/05 03:15:58;;;;;;;0.30;0.30;;;;;;;-148.56;100.00;61375.16;5010733;28;20104;-32
2021/05/05 03:19:22;;;;;;;1.70;0.60;;;;;;;-148.56;100.00;61375.16;5009675;28;20134;-31
2021/05/05 03:22:46;;;;;;;0.20;0.20;;;;;;;-148.56;100.00;61375.16;4987949;28;20038;-29
2021/05/05 03:26:10;;;;;;;0.63;0.40;;;;;;;-148.56;100.00;61375.16;5015957;28;20033;-31
2021/05/05 03:29:33;;;;;;;0.40;0.30;;;;;;;-148.56;100.00;61375.16;5005442;28;21138;-31
2021/05/05 03:32:58;;;;;;;0.98;0.40;;;;;;;-148.56;100.00;61375.16;4995663;28;20049;-34
2021/05/05 03:36:22;;;;;;;0.38;0.30;;;;;;;-148.56;100.00;61375.16;4986766;28;20026;-32
2021/05/05 03:39:45;;;;;;;0.30;0.20;;;;;;;-148.56;100.00;61375.16;5010136;28;20595;-30
2021/05/05 03:43:09;;;;;;;1.20;0.35;;;;;;;-148.56;100.00;61375.16;5011720;28;20432;-32
2021/05/05 03:46:33;;;;;;;0.10;0.10;;;;;;;-148.56;100.00;61375.16;5012001;28;20400;-30
2021/05/05 03:49:57;;;;;;;0.43;0.28;;;;;;;-148.56;100.00;61375.16;4989129;28;20025;-34
2021/05/05 03:53:21;;;;;;;0.45;0.20;;;;;;;-148.56;100.00;61375.16;4994378;28;20056;-32
2021/05/05 03:56:45;;;;;;;0.43;0.20;;;;;;;-148.56;100.00;61375.16;4993073;28;20029;-30
2021/05/05 04:00:09;;;;;;;0.60;0.28;;;;;;;-148.56;100.00;61375.16;5002024;28;20040;-34
2021/05/05 04:03:33;;;;;;;0.75;0.20;;;;;;;-148.56;100.00;61375.16;5012853;28;20047;-32
2021/05/05 04:06:57;;;;;;;0.80;0.20;;;;;;;-148.56;100.00;61375.16;5010491;28;20114;-31
2021/05/05 04:10:21;;;;;;;0.40;0.30;;;;;;;-148.56;100.00;61375.16;5001227;28;20025;-30
2021/05/05 04:13:45;;;;;;;0.57;0.30;;;;;;;-148.56;100.00;61375.16;5008594;28;20590;-32
2021/05/05 04:17:09;;;;;;;0.88;0.28;;;;;;;-148.56;100.00;61375.16;4995176;28;20120;-34
2021/05/05 04:20:34;;;;;;;0.20;0.20;;;;;;;-148.56;100.00;61375.16;5015178;28;20111;-29
2021/05/05 04:23:57;;;;;;;0.40;0.25;;;;;;;-148.56;100.00;61375.16;5000974;28;20475;-29
2021/05/05 04:27:21;;;;;;;0.85;0.20;;;;;;;-148.56;100.00;61375.16;5015883;28;20069;-31
2021/05/05 04:30:45;;;;;;;0.45;0.25;;;;;;;-148.56;100.00;61375.16;5013909;28;20052;-36
2021/05/05 04:34:09;;;;;;;0.50;0.30;;;;;;;-148.56;100.00;61375.16;5008230;28;20045;-30
2021/05/05 04:37:33;;;;;;;1.00;0.30;;;;;;;-148.56;100.00;61375.16;5008487;28;20026;-29
2021/05/05 04:40:57;;;;;;;0.22;0.20;;;;;;;-148.56;100.00;61375.16;5011211;28;20037;-32
2021/05/05 04:44:21;;;;;;;1.17;0.10;;;;;;;-148.56;100.00;61375.16;5016375;28;20029;-32
2021/05/05 04:47:44;;;;;;;0.30;0.17;;;;;;;-148.56;100.00;61375.16;5008925;28;20116;-30
2021/05/05 04:51:08;;;;;;;0.28;0.20;;;;;;;-148.56;100.00;61375.16;5008263;28;20033;-32
2021/05/05 04:54:32;;;;;;;0.52;0.30;;;;;;;-148.56;100.00;61375.16;5011687;28;20145;-31
2021/05/05 04:57:56;;;;;;;0.20;0.15;;;;;;;-148.56;100.00;61375.16;5010532;28;20052;-32
2021/05/05 05:01:20;;;;;;;2.85;0.38;;;;;;;-148.56;100.00;61375.16;5010640;28;20041;-33
2021/05/05 05:04:44;;;;;;;1.02;0.30;;;;;;;-148.56;100.00;61375.16;5012655;28;21831;-33
2021/05/05 05:08:08;;;;;;;0.40;0.17;;;;;;;-148.56;100.00;61375.16;5016575;28;20033;-32
2021/05/05 05:11:32;;;;;;;0.70;0.40;;;;;;;-148.56;100.00;61375.16;5007055;28;20032;-32
2021/05/05 05:14:56;;;;;;;9.80;0.90;;;;;;;-148.56;100.00;61375.16;5010631;28;20045;-30
2021/05/05 05:18:20;;;;;;;1.48;0.40;;;;;;;-148.56;100.00;61375.16;5011921;28;20034;-32
2021/05/05 05:21:44;;;;;;;0.90;0.30;;;;;;;-148.56;100.00;61375.16;5015744;28;20048;-29
2021/05/05 05:25:10;;;;;;;0.65;0.30;;;;;;;-148.56;100.00;61375.16;5016676;28;20041;-31
2021/05/05 05:28:34;;;;;;;4.68;0.40;;;;;;;-148.56;100.00;61375.16;5008352;28;20095;-31
2021/05/05 05:31:57;;;;;;;1.52;0.25;;;;;;;-148.56;100.00;61375.16;5010123;28;20524;-30
2021/05/05 05:35:21;;;;;;;1.13;0.20;;;;;;;-148.56;100.00;61375.16;5012659;28;20040;-33
2021/05/05 05:38:45;;;;;;;1.58;0.50;;;;;;;-148.56;100.00;61375.16;5015065;28;20499;-29
2021/05/05 05:42:12;;;;;;;0.35;0.30;;;;;;;-148.56;100.00;61375.16;5012740;28;20043;-33
2021/05/05 05:45:36;;;;;;;1.25;0.40;;;;;;;-148.56;100.00;61375.16;5011854;28;20029;-34
2021/05/05 05:48:59;;;;;;;0.70;0.40;;;;;;;-148.56;100.00;61375.16;5004353;28;20094;-31
2021/05/05 05:52:23;;;;;;;0.32;0.20;;;;;;;-148.56;100.00;61375.16;5010383;28;20025;-29
2021/05/05 05:55:47;;;;;;;0.85;0.20;;;;;;;-148.56;100.00;61375.16;5013484;28;20033;-32
2021/05/05 05:59:11;;;;;;;0.93;0.40;;;;;;;-148.56;100.00;61375.16;5000137;28;20110;-29
2021/05/05 06:02:35;;;;;;;1.58;0.30;;;;;;;-148.56;100.00;61375.16;5008949;28;20554;-33
2021/05/05 06:05:59;;;;;;;1.88;0.45;;;;;;;-148.56;100.00;61375.16;5003105;28;20124;-30
2021/05/05 06:09:23;;;;;;;0.52;0.30;;;;;;;-148.56;100.00;61375.16;5007723;28;20036;-30
2021/05/05 06:12:47;;;;;;;0.70;0.32;;;;;;;-148.56;100.00;61375.16;5007288;28;20042;-32
2021/05/05 06:16:11;;;;;;;1.48;0.30;;;;;;;-148.56;100.00;61375.16;4984184;28;20040;-32
2021/05/05 06:19:35;;;;;;;0.30;0.28;;;;;;;-148.56;100.00;61375.16;5012040;28;20045;-32
2021/05/05 06:22:00;;;;;;;1.50;0.30;;;;;;;27.33;27.26;95514.41;4994387;28;20025;-32
2021/05/05 06:24:25;;;;;;;4.88;0.40;;;;;;;26.69;27.75;95605.22;4998416;28;20032;-29
2021/05/05 06:26:51;;;;;;;0.47;0.38;;;;;;;26.68;27.60;95612.25;5010885;28;20675;-31
2021/05/05 06:30:15;;;;;;;0.68;0.32;;;;;;;-148.56;100.00;61375.16;5003757;28;20040;-30
2021/05/05 06:33:39;;;;;;;3.03;0.60;;;;;;;-148.56;100.00;61375.16;5002138;28;20042;-34
2021/05/05 06:37:03;;;;;;;1.70;0.60;;;;;;;-148.56;100.00;61375.16;4995919;28;20029;-32
2021/05/05 06:40:28;;;;;;;6.68;0.70;;;;;;;-148.56;100.00;61375.16;5011419;28;20031;-34
2021/05/05 06:43:51;;;;;;;17.63;1.55;;;;;;;-148.56;100.00;61375.16;5008381;28;20320;-32
2021/05/05 06:47:15;;;;;;;4.20;1.05;;;;;;;-148.56;100.00;61375.16;5000755;28;20029;-30
2021/05/05 06:50:39;;;;;;;4.13;0.50;;;;;;;-148.56;100.00;61375.16;5003171;28;20051;-28
2021/05/05 06:54:04;;;;;;;3.33;0.82;;;;;;;-148.56;100.00;61375.16;5000575;28;20340;-30
2021/05/05 06:57:28;;;;;;;4.95;0.82;;;;;;;-148.56;100.00;61375.16;5003213;28;20104;-28
2021/05/05 07:00:51;;;;;;;2.55;0.93;;;;;;;-148.56;100.00;61375.16;5008958;28;20029;-32
2021/05/05 07:04:15;;;;;;;3.15;0.93;;;;;;;-148.56;100.00;61375.16;5002575;28;20303;-30
2021/05/05 07:07:39;;;;;;;3.78;0.95;;;;;;;-148.56;100.00;61375.16;5000953;28;20153;-33
2021/05/05 07:11:04;;;;;;;4.43;0.90;;;;;;;-148.56;100.00;61375.16;5003668;28;20068;-35
2021/05/05 07:14:28;;;;;;;3.22;1.00;;;;;;;-148.56;100.00;61375.16;4994491;28;20033;-29
2021/05/05 07:17:52;;;;;;;4.05;1.08;;;;;;;-148.56;100.00;61375.16;5001961;28;20036;-32
2021/05/05 07:21:16;;;;;;;4.03;0.88;;;;;;;-148.56;100.00;61375.16;5005783;28;20678;-31
2021/05/05 07:24:40;;;;;;;2.63;1.00;;;;;;;-148.56;100.00;61375.16;5002719;28;20111;-30
2021/05/05 07:28:04;;;;;;;4.07;1.10;;;;;;;-148.56;100.00;61375.16;5001220;28;20038;-29
2021/05/05 07:31:27;;;;;;;5.07;0.98;;;;;;;-148.56;100.00;61375.16;4999253;28;20029;-30
2021/05/05 07:34:53;;;;;;;2.90;0.85;;;;;;;-148.56;100.00;61375.16;5004015;28;20041;-28
2021/05/05 07:38:25;;;;;;;3.17;0.90;;;;;;;-148.56;100.00;61375.16;4999311;28;20052;-29
2021/05/05 07:52:13;;;;;;;2.45;0.90;;;;;;;-148.56;100.00;61375.16;5007342;28;20440;-31
2021/05/05 07:55:37;;;;;;;2.17;0.82;;;;;;;-148.56;100.00;61375.16;5012110;28;20054;-29
2021/05/05 07:59:02;;;;;;;4.13;0.90;;;;;;;-148.56;100.00;61375.16;5004833;28;20029;-30
2021/05/05 08:02:26;;;;;;;2.70;1.17;;;;;;;-148.56;100.00;61375.16;5007042;28;20056;-32
2021/05/05 08:05:50;;;;;;;2.22;0.90;;;;;;;-148.56;100.00;61375.16;4988887;28;20124;-33
2021/05/05 08:09:14;;;;;;;2.90;1.10;;;;;;;-148.56;100.00;61375.16;5006095;28;20499;-30
2021/05/05 08:12:38;;;;;;;2.58;1.20;;;;;;;-148.56;100.00;61375.16;5009203;28;20047;-29
2021/05/05 08:16:03;;;;;;;1.50;0.90;;;;;;;-148.56;100.00;61375.16;5005181;28;20431;-28
2021/05/05 08:19:27;;;;;;;2.35;0.70;;;;;;;-148.56;100.00;61375.16;5003103;28;20024;-31
2021/05/05 08:22:51;;;;;;;1.65;0.52;;;;;;;-148.56;100.00;61375.16;5006150;28;20025;-29
2021/05/05 08:26:15;;;;;;;3.90;1.50;;;;;;;-148.56;100.00;61375.16;4654989;28;10000127;-26
2021/05/05 08:29:41;;;;;;;5.93;1.90;;;;;;;-148.56;100.00;61375.16;5008033;28;20029;-28
2021/05/05 08:33:05;;;;;;;4.82;1.95;;;;;;;-148.56;100.00;61375.16;5004379;28;20042;-29
2021/05/05 08:36:29;;;;;;;6.22;1.77;;;;;;;-148.56;100.00;61375.16;4986295;28;20037;-31
2021/05/05 08:39:53;;;;;;;9.82;2.13;;;;;;;-148.56;100.00;61375.16;5003619;28;20025;-32
2021/05/05 08:43:17;;;;;;;3.95;1.80;;;;;;;-148.56;100.00;61375.16;5004150;28;20048;-29
2021/05/05 08:46:42;;;;;;;4.93;1.67;;;;;;;-148.56;100.00;61375.16;5007075;28;20045;-31
2021/05/05 08:50:06;;;;;;;7.00;1.80;;;;;;;-148.56;100.00;61375.16;5002956;28;20037;-30
2021/05/05 08:53:30;;;;;;;4.57;1.42;;;;;;;-148.56;100.00;61375.16;4993787;28;20029;-28
2021/05/05 08:56:54;;;;;;;6.63;1.63;;;;;;;-148.56;100.00;61375.16;5004118;28;20034;-31
2021/05/05 09:00:22;;;;;;;5.53;1.70;;;;;;;-148.56;100.00;61375.16;5001819;28;20056;-31
2021/05/05 09:03:46;;;;;;;3.20;1.40;;;;;;;-148.56;100.00;61375.16;4998411;28;20041;-30
2021/05/05 09:07:11;;;;;;;3.65;1.50;;;;;;;-148.56;100.00;61375.16;5004223;28;20037;-29
2021/05/05 09:10:55;;;;;;;8.07;1.85;;;;;;;-148.56;100.00;61375.16;4985103;28;20022;-29
2021/05/05 09:14:48;;;;;;;5.07;1.80;;;;;;;-148.56;100.00;61375.16;5005420;28;20095;-33
2021/05/05 09:18:16;;;;;;;10.63;2.42;;;;;;;-148.56;100.00;61375.16;5004163;28;20035;-34
2021/05/05 09:21:43;;;;;;;15.95;1.90;;;;;;;-148.56;100.00;61375.16;5012491;28;20033;-31
2021/05/05 09:25:17;;;;;;;12.68;1.92;;;;;;;-148.56;100.00;61375.16;5008446;28;20032;-30
2021/05/05 09:28:50;;;;;;;5.65;1.75;;;;;;;-148.56;100.00;61375.16;5017852;28;20026;-31
2021/05/05 09:32:18;;;;;;;;;;;;;;;-148.56;100.00;61375.16;5014348;28;20527;-28
2021/05/05 09:35:41;;;;;;;7.40;2.03;;;;;;;-148.56;100.00;61375.16;5014756;28;19951;-32
2021/05/05 09:39:08;;;;;;;4.72;1.92;;;;;;;-148.56;100.00;61375.16;5007194;28;20040;-33
2021/05/05 09:42:32;;;;;;;7.45;1.98;;;;;;;-148.56;100.00;61375.16;5011940;28;20566;-29
2021/05/05 09:46:01;;;;;;;7.88;1.98;;;;;;;-148.56;100.00;61375.16;5016534;28;20381;-31
2021/05/05 09:49:35;;;;;;;2.85;1.58;;;;;;;-148.56;100.00;61375.16;4997020;28;20175;-32
2021/05/05 09:53:12;;;;;;;8.55;1.60;;;;;;;-148.56;100.00;61375.16;5012384;28;20118;-31
2021/05/05 09:56:36;;;;;;;7.10;1.90;;;;;;;-148.56;100.00;61375.16;5016228;28;20120;-32
2021/05/05 10:00:09;;;;;;;7.55;1.75;;;;;;;-148.56;100.00;61375.16;5017909;28;20029;-30
2021/05/05 10:03:59;;;;;;;2.80;1.35;;;;;;;-148.56;100.00;61375.16;5013470;28;20048;-33
2021/05/05 10:07:27;;;;;;;2.53;1.35;;;;;;;-148.56;100.00;61375.16;5016383;28;20061;-31
2021/05/05 10:10:51;;;;;;;4.53;1.88;;;;;;;-148.56;100.00;61375.16;5016519;28;20036;-31
2021/05/05 10:14:15;;;;;;;3.22;1.20;;;;;;;-148.56;100.00;61375.16;5018573;28;20032;-30
2021/05/05 10:17:47;;;;;;;4.30;1.45;;;;;;;-148.56;100.00;61375.16;5009944;28;20462;-33
2021/05/05 10:21:13;;;;;;;6.07;1.67;;;;;;;-148.56;100.00;61375.16;5014629;28;20037;-29
2021/05/05 10:24:41;;;;;;;2.88;1.40;;;;;;;-148.56;100.00;61375.16;5004485;28;20029;-28
2021/05/05 10:28:05;;;;;;;3.47;1.23;;;;;;;-148.56;100.00;61375.16;4998282;28;20112;-30
2021/05/05 10:31:30;;;;;;;3.05;1.20;;;;;;;-148.56;100.00;61375.16;5010537;28;20455;-30
2021/05/05 10:34:57;;;;;;;2.58;1.20;;;;;;;-148.56;100.00;61375.16;5006883;28;20057;-35
2021/05/05 10:38:37;;;;;;;2.95;1.17;;;;;;;-148.56;100.00;61375.16;5000199;28;20530;-30
2021/05/05 10:42:12;;;;;;;4.78;1.42;;;;;;;-148.56;100.00;61375.16;5009272;28;20456;-33
2021/05/05 10:45:54;;;;;;;3.22;1.17;;;;;;;-148.56;100.00;61375.16;5017321;28;20061;-30
2021/05/05 10:49:18;;;;;;;;;;;;;;;-148.56;100.00;61375.16;5017596;28;20439;-32
2021/05/05 10:52:45;;;;;;;3.75;1.52;;;;;;;-148.56;100.00;61375.16;4996659;28;19921;-29
2021/05/05 10:56:25;;;;;;;2.08;1.08;;;;;;;-148.56;100.00;61375.16;5015843;28;20044;-32
2021/05/05 11:00:06;;;;;;;4.30;0.80;;;;;;;-148.56;100.00;61375.16;4996368;28;20075;-32
2021/05/05 11:03:42;;;;;;;2.72;0.95;;;;;;;-148.56;100.00;61375.16;4990549;28;20038;-30
2021/05/05 11:07:44;;;;;;;1.33;0.70;;;;;;;-148.56;100.00;61375.16;5015018;28;20037;-34
2021/05/05 11:11:09;;;;;;;5.93;0.80;;;;;;;-148.56;100.00;61375.16;5010897;28;20026;-33
2021/05/05 11:14:35;;;;;;;3.00;0.90;;;;;;;-148.56;100.00;61375.16;4978488;28;20053;-32
2021/05/05 11:17:59;;;;;;;4.68;1.35;;;;;;;-148.56;100.00;61375.16;5011443;28;20029;-32
2021/05/05 11:21:39;;;;;;;2.47;0.85;;;;;;;-148.56;100.00;61375.16;4989170;28;20029;-31
2021/05/05 11:25:19;;;;;;;2.50;0.90;;;;;;;-148.56;100.00;61375.16;5006948;28;20078;-30
2021/05/05 11:28:59;;;;;;;5.18;1.20;;;;;;;-148.56;100.00;61375.16;4997965;28;20456;-27
2021/05/05 11:32:42;;;;;;;1.65;0.82;;;;;;;-148.56;100.00;61375.16;5006703;28;20048;-29
2021/05/05 11:36:26;;;;;;;3.33;1.10;;;;;;;-148.56;100.00;61375.16;4990795;28;20338;-29
2021/05/05 11:39:51;;;;;;;3.45;1.05;;;;;;;-148.56;100.00;61375.16;5004233;28;20053;-33
2021/05/05 11:43:19;;;;;;;2.30;0.88;;;;;;;-148.56;100.00;61375.16;4993585;28;20022;-32
2021/05/05 11:46:59;;;;;;;2.28;0.98;;;;;;;-148.56;100.00;61375.16;5001148;28;20032;-30
2021/05/05 11:50:29;;;;;;;4.07;1.10;;;;;;;-148.56;100.00;61375.16;5008711;28;20534;-31
2021/05/05 11:53:53;;;;;;;4.55;1.00;;;;;;;-148.56;100.00;61375.16;5005408;28;20035;-33
2021/05/05 11:57:22;;;;;;;3.83;0.75;;;;;;;-148.56;100.00;61375.16;5008141;28;20037;-29
2021/05/05 12:00:46;;;;;;;2.92;1.15;;;;;;;-148.56;100.00;61375.16;5006975;28;20025;-31
2021/05/05 12:04:13;;;;;;;2.60;1.00;;;;;;;-148.56;100.00;61375.16;4997374;28;20115;-31
2021/05/05 12:08:02;;;;;;;3.30;1.10;;;;;;;-148.56;100.00;61375.16;5007919;28;20161;-30
2021/05/05 12:11:39;;;;;;;4.45;0.90;;;;;;;-148.56;100.00;61375.16;5003616;28;20029;-29
2021/05/05 12:15:05;;;;;;;2.90;0.80;;;;;;;-148.56;100.00;61375.16;5018019;28;20025;-32
2021/05/05 12:18:44;;;;;;;3.92;1.00;;;;;;;-148.56;100.00;61375.16;5001349;28;20550;-28
2021/05/05 12:22:12;;;;;;;8.35;3.28;;;;;;;-148.56;100.00;61375.16;5008963;28;20653;-32
2021/05/05 12:25:35;;;;;;;32.15;13.38;;;;;;;-148.56;100.00;61375.16;5009355;28;20105;-29
2021/05/05 12:29:13;;;;;;;58.30;25.88;;;;;;;-148.56;100.00;61375.16;5011960;28;20108;-29
2021/05/05 12:32:43;;;;;;;217.50;83.60;;;;;;;-148.56;100.00;61375.16;5009990;28;20048;-34
2021/05/05 12:36:15;;;;;;;429.75;198.38;;;;;;;-148.56;100.00;61375.16;5011561;28;20032;-32
2021/05/05 12:39:40;;;;;;;511.05;256.45;;;;;;;-148.56;100.00;61375.16;5002819;28;20060;-30
2021/05/05 12:43:14;;;;;;;540.85;279.65;;;;;;;-148.56;100.00;61375.16;5010734;28;20566;-29
2021/05/05 12:50:25;;;;;;;483.98;250.45;;;;;;;-148.56;100.00;61375.16;5008541;28;20099;-29
2021/05/05 12:53:59;;;;;;;472.95;238.23;;;;;;;-148.56;100.00;61375.16;4991921;28;20060;-29
2021/05/05 12:57:39;;;;;;;438.88;217.88;;;;;;;-148.56;100.00;61375.16;5005213;28;20025;-28
2021/05/05 13:01:07;;;;;;;434.60;209.57;;;;;;;-148.56;100.00;61375.16;5009131;28;20307;-32
2021/05/05 13:04:39;;;;;;;410.45;191.13;;;;;;;-148.56;100.00;61375.16;5005865;28;20265;-33
2021/05/05 13:08:09;;;;;;;400.90;183.40;;;;;;;-148.56;100.00;61375.16;5000907;28;20083;-32
2021/05/05 13:11:51;;;;;;;371.83;160.15;;;;;;;-148.56;100.00;61375.16;5003783;28;20042;-27
2021/05/05 13:19:24;;;;;;;298.90;126.00;;;;;;;-148.56;100.00;61375.16;5001988;28;20037;-33
2021/05/05 13:30:56;;;;;;;223.50;95.47;;;;;;;-148.56;100.00;61375.16;5006733;28;20071;-29
2021/05/05 13:34:23;;;;;;;203.90;89.85;;;;;;;-148.56;100.00;61375.16;5006108;28;20033;-32
2021/05/05 13:37:57;;;;;;;203.18;83.78;;;;;;;-148.56;100.00;61375.16;4981744;28;20055;-29
2021/05/05 13:41:21;;;;;;;167.45;75.90;;;;;;;-148.56;100.00;61375.16;5006205;28;20120;-32
2021/05/05 13:44:53;;;;;;;172.02;75.38;;;;;;;-148.56;100.00;61375.16;5007600;28;20037;-29
2021/05/05 13:48:27;;;;;;;153.50;67.68;;;;;;;-148.56;100.00;61375.16;5009985;28;20690;-32
2021/05/05 13:51:53;;;;;;;162.05;63.30;;;;;;;-148.56;100.00;61375.16;5005559;28;20517;-29
2021/05/05 13:55:17;;;;;;;137.55;60.67;;;;;;;-148.56;100.00;61375.16;5005608;28;20643;-32
2021/05/05 13:58:41;;;;;;;136.40;60.97;;;;;;;-148.56;100.00;61375.16;5013970;28;20037;-31
2021/05/05 14:02:06;;;;;;;127.32;56.10;;;;;;;-148.56;100.00;61375.16;5008601;28;20672;-33
2021/05/05 14:05:35;;;;;;;115.10;52.95;;;;;;;-148.56;100.00;61375.16;5007513;28;20033;-30
2021/05/05 14:08:59;;;;;;;119.50;49.63;;;;;;;-148.56;100.00;61375.16;5011981;28;20112;-32
2021/05/05 14:12:23;;;;;;;81.63;39.25;;;;;;;-148.56;100.00;61375.16;4998318;28;20120;-29
2021/05/05 14:15:49;;;;;;;52.15;23.55;;;;;;;-148.56;100.00;61375.16;4984648;28;20060;-32
2021/05/05 14:19:12;;;;;;;47.13;22.60;;;;;;;-148.56;100.00;61375.16;5008067;28;20041;-29
2021/05/05 14:22:36;;;;;;;40.95;21.83;;;;;;;-148.56;100.00;61375.16;5010299;28;20029;-28
2021/05/05 14:26:00;;;;;;;26.15;13.07;;;;;;;-148.56;100.00;61375.16;5005698;28;20033;-27
2021/05/05 14:29:24;;;;;;;20.30;10.70;;;;;;;-148.56;100.00;61375.16;5007124;28;20495;-31
2021/05/05 14:32:48;;;;;;;19.02;9.32;;;;;;;-148.56;100.00;61375.16;5009918;28;20630;-30
2021/05/05 14:36:12;;;;;;;17.35;7.50;;;;;;;-148.56;100.00;61375.16;5000423;28;20323;-28
2021/05/05 14:39:36;;;;;;;10.40;5.82;;;;;;;-148.56;100.00;61375.16;5009613;28;20106;-30
2021/05/05 14:43:11;;;;;;;7.90;4.30;;;;;;;-148.56;100.00;61375.16;5010958;28;20037;-30
2021/05/05 14:50:01;;;;;;;6.97;3.65;;;;;;;-148.56;100.00;61375.16;5001009;28;20619;-32
2021/05/05 14:53:26;;;;;;;7.18;3.60;;;;;;;-148.56;100.00;61375.16;5007197;28;20115;-28
2021/05/05 14:56:50;;;;;;;6.75;3.30;;;;;;;-148.56;100.00;61375.16;5011313;28;20069;-32
2021/05/05 15:00:15;;;;;;;8.15;4.60;;;;;;;-148.56;100.00;61375.16;5007107;28;20161;-31
2021/05/05 15:03:39;;;;;;;11.40;5.72;;;;;;;-148.56;100.00;61375.16;5000754;28;20056;-29
2021/05/05 15:07:04;;;;;;;11.73;5.38;;;;;;;-148.56;100.00;61375.16;5005835;28;20025;-29
2021/05/05 15:14:21;;;;;;;10.13;4.93;;;;;;;-148.56;100.00;61375.16;5006737;28;20080;-31
2021/05/05 15:29:00;;;;;;;10.52;5.47;;;;;;;-148.56;100.00;61375.16;5009189;28;20539;-31
2021/05/05 15:36:17;;;;;;;;;;;;;;;-148.56;100.00;61375.16;5006227;28;20051;-31
2021/05/05 15:39:46;;;;;;;9.07;4.88;;;;;;;-148.56;100.00;61375.16;5007223;28;20001;-30
2021/05/05 15:47:03;;;;;;;12.02;5.93;;;;;;;-148.56;100.00;61375.16;5004595;28;20128;-30
2021/05/05 15:50:29;;;;;;;10.52;5.35;;;;;;;-148.56;100.00;61375.16;5008205;28;20033;-29
2021/05/05 15:53:54;;;;;;;13.43;6.65;;;;;;;-148.56;100.00;61375.16;5006482;28;20025;-29
2021/05/05 15:57:18;;;;;;;12.43;5.93;;;;;;;-148.56;100.00;61375.16;5010979;28;20034;-33
2021/05/05 16:00:50;;;;;;;19.08;6.72;;;;;;;-148.56;100.00;61375.16;5008765;28;20068;-31
2021/05/05 16:11:47;;;;;;;14.10;7.20;;;;;;;-148.56;100.00;61375.16;5013288;28;20039;-31
2021/05/05 16:19:08;;;;;;;13.48;5.53;;;;;;;-148.56;100.00;61375.16;5008739;28;20110;-30
2021/05/05 16:22:41;;;;;;;10.27;5.45;;;;;;;-148.56;100.00;61375.16;5016345;28;20021;-31
2021/05/05 16:29:48;;;;;;;11.68;5.88;;;;;;;-148.56;100.00;61375.16;5009645;28;20035;-30
2021/05/05 17:10:06;;;;;;;8.77;5.10;;;;;;;-148.56;100.00;61375.16;5004585;28;20316;-29
2021/05/05 17:13:30;;;;;;;9.43;5.10;;;;;;;-148.56;100.00;61375.16;5010343;28;20124;-29
2021/05/05 17:17:01;;;;;;;9.40;4.85;;;;;;;-148.56;100.00;61375.16;5003841;28;21070;-32